createdAt,value
2018-03-28T00:02:03.208Z,11.20
2018-03-28T00:04:31.632Z,11.26
2018-03-28T00:06:59.949Z,11.28
2018-03-28T00:09:28.305Z,11.25
2018-03-28T00:11:56.755Z,11.27
2018-03-28T00:14:25.171Z,10.97
2018-03-28T00:16:53.824Z,10.43
2018-03-28T00:19:22.122Z,11.17
2018-03-28T00:21:50.803Z,11.18
2018-03-28T00:24:19.467Z,11.10
2018-03-28T00:26:48.057Z,11.10
2018-03-28T00:29:16.538Z,11.25
2018-03-28T00:31:44.811Z,11.00
2018-03-28T00:34:13.438Z,11.32
2018-03-28T00:36:41.969Z,11.24
2018-03-28T00:39:10.765Z,11.34
2018-03-28T00:41:39.554Z,11.28
2018-03-28T00:44:08.168Z,11.32
2018-03-28T00:46:37.852Z,11.36
2018-03-28T00:49:06.275Z,10.92
2018-03-28T00:51:38.354Z,10.97
2018-03-28T00:54:06.767Z,10.20
2018-03-28T00:56:35.100Z,9.74
2018-03-28T00:59:03.723Z,10.16
2018-03-28T01:01:32.029Z,10.78
2018-03-28T01:04:00.474Z,11.03
2018-03-28T01:06:28.963Z,10.43
2018-03-28T01:08:57.685Z,10.58
2018-03-28T01:11:26.155Z,10.95
2018-03-28T01:13:54.811Z,11.22
2018-03-28T01:16:23.219Z,11.38
2018-03-28T01:18:51.881Z,10.26
2018-03-28T01:21:20.455Z,10.15
2018-03-28T01:23:48.782Z,10.47
2018-03-28T01:26:17.079Z,10.39
2018-03-28T01:28:45.559Z,10.48
2018-03-28T01:31:13.889Z,10.76
2018-03-28T01:33:42.550Z,10.84
2018-03-28T01:36:10.830Z,10.85
2018-03-28T01:38:39.312Z,10.49
2018-03-28T01:41:08.098Z,10.35
2018-03-28T01:43:36.774Z,10.78
2018-03-28T01:46:05.345Z,10.81
2018-03-28T01:48:33.754Z,10.30
2018-03-28T01:51:02.219Z,10.02
2018-03-28T01:53:30.610Z,10.07
2018-03-28T01:55:59.085Z,10.57
2018-03-28T01:58:27.762Z,10.32
2018-03-28T02:00:56.624Z,10.21
2018-03-28T02:03:25.002Z,10.63
2018-03-28T02:05:53.622Z,10.71
2018-03-28T02:08:21.965Z,10.88
2018-03-28T02:10:50.586Z,10.94
2018-03-28T02:13:18.959Z,11.01
2018-03-28T02:15:47.275Z,11.09
2018-03-28T02:18:15.935Z,11.11
2018-03-28T02:20:44.301Z,11.11
2018-03-28T02:23:12.686Z,11.08
2018-03-28T02:25:41.158Z,11.14
2018-03-28T02:28:09.735Z,11.17
2018-03-28T02:30:38.256Z,11.16
2018-03-28T02:33:06.707Z,11.10
2018-03-28T02:35:35.276Z,11.07
2018-03-28T02:38:03.610Z,11.09
2018-03-28T02:40:32.030Z,11.14
2018-03-28T02:43:00.634Z,11.14
2018-03-28T02:45:28.998Z,10.69
2018-03-28T02:47:57.649Z,10.32
2018-03-28T02:50:26.077Z,10.37
2018-03-28T02:52:54.440Z,10.47
2018-03-28T02:55:22.749Z,10.78
2018-03-28T02:57:51.087Z,10.76
2018-03-28T03:00:19.676Z,10.86
2018-03-28T03:02:48.060Z,10.95
2018-03-28T03:05:16.652Z,10.94
2018-03-28T03:07:45.012Z,10.85
2018-03-28T03:10:13.640Z,10.63
2018-03-28T03:12:42.199Z,10.83
2018-03-28T03:15:10.659Z,10.71
2018-03-28T03:17:39.046Z,10.35
2018-03-28T03:20:07.640Z,10.05
2018-03-28T03:22:36.303Z,9.29
2018-03-28T03:25:04.693Z,9.18
2018-03-28T03:27:33.174Z,8.98
2018-03-28T03:30:01.847Z,9.45
2018-03-28T03:32:30.529Z,9.21
2018-03-28T03:34:58.859Z,9.44
2018-03-28T03:37:27.228Z,9.69
2018-03-28T03:39:55.580Z,9.64
2018-03-28T03:42:24.037Z,9.60
2018-03-28T03:44:52.543Z,9.89
2018-03-28T03:47:20.794Z,10.08
2018-03-28T03:49:49.315Z,10.24
2018-03-28T03:52:17.657Z,10.24
2018-03-28T03:54:46.113Z,10.37
2018-03-28T03:57:14.537Z,10.30
2018-03-28T03:59:43.098Z,10.52
2018-03-28T04:02:11.509Z,10.36
2018-03-28T04:04:39.972Z,10.25
2018-03-28T04:07:08.745Z,10.24
2018-03-28T04:09:36.868Z,10.31
2018-03-28T04:12:05.305Z,10.35
2018-03-28T04:14:33.748Z,10.38
2018-03-28T04:17:02.168Z,10.46
2018-03-28T04:19:30.655Z,10.64
2018-03-28T04:21:59.013Z,9.86
2018-03-28T04:24:27.614Z,9.70
2018-03-28T04:26:56.095Z,9.05
2018-03-28T04:29:24.662Z,8.79
2018-03-28T04:31:52.881Z,8.86
2018-03-28T04:34:21.209Z,8.66
2018-03-28T04:36:49.722Z,8.63
2018-03-28T04:39:18.417Z,9.00
2018-03-28T04:41:46.858Z,9.10
2018-03-28T04:44:15.448Z,9.13
2018-03-28T04:46:43.941Z,9.07
2018-03-28T04:49:12.606Z,9.03
2018-03-28T04:51:41.289Z,8.68
2018-03-28T04:54:09.571Z,9.12
2018-03-28T04:56:38.151Z,8.93
2018-03-28T04:59:06.630Z,9.61
2018-03-28T05:01:34.928Z,9.85
2018-03-28T05:04:03.556Z,9.43
2018-03-28T05:06:31.974Z,9.05
2018-03-28T05:09:00.566Z,9.46
2018-03-28T05:11:29.129Z,9.61
2018-03-28T05:13:57.415Z,9.23
2018-03-28T05:16:25.584Z,9.61
2018-03-28T05:18:54.270Z,9.83
2018-03-28T05:21:22.462Z,9.57
2018-03-28T05:23:50.730Z,10.03
2018-03-28T05:26:19.166Z,10.06
2018-03-28T05:28:47.578Z,9.68
2018-03-28T05:31:17.098Z,9.60
2018-03-28T05:33:45.778Z,10.16
2018-03-28T05:36:14.465Z,10.02
2018-03-28T05:38:42.938Z,10.41
2018-03-28T05:41:11.485Z,10.46
2018-03-28T05:43:40.005Z,10.70
2018-03-28T05:46:08.282Z,10.59
2018-03-28T05:48:37.179Z,9.88
2018-03-28T05:51:05.542Z,9.69
2018-03-28T05:53:34.183Z,9.15
2018-03-28T05:56:02.624Z,9.39
2018-03-28T05:58:30.922Z,9.25
2018-03-28T06:00:59.635Z,9.29
2018-03-28T06:03:28.140Z,9.14
2018-03-28T06:05:56.739Z,9.72
2018-03-28T06:08:25.233Z,9.62
2018-03-28T06:10:53.707Z,9.40
2018-03-28T06:13:22.276Z,9.48
2018-03-28T06:15:50.557Z,9.92
2018-03-28T06:18:19.036Z,10.32
2018-03-28T06:20:47.516Z,10.30
2018-03-28T06:23:16.268Z,10.42
2018-03-28T06:25:44.779Z,10.94
2018-03-28T06:28:13.358Z,10.87
2018-03-28T06:30:41.904Z,11.15
2018-03-28T06:33:10.124Z,11.34
2018-03-28T06:35:38.599Z,11.05
2018-03-28T06:38:07.096Z,11.52
2018-03-28T06:40:35.786Z,11.65
2018-03-28T06:43:04.242Z,11.39
2018-03-28T06:45:32.739Z,11.21
2018-03-28T06:48:01.218Z,11.23
2018-03-28T06:50:29.891Z,11.83
2018-03-28T06:52:58.278Z,11.17
2018-03-28T06:55:26.748Z,10.79
2018-03-28T06:57:55.435Z,10.82
2018-03-28T07:00:23.620Z,10.95
2018-03-28T07:02:52.296Z,10.90
2018-03-28T07:05:20.946Z,10.89
2018-03-28T07:07:49.287Z,10.89
2018-03-28T07:10:17.636Z,11.12
2018-03-28T07:12:45.938Z,11.79
2018-03-28T07:15:14.463Z,11.13
2018-03-28T07:17:43.143Z,11.57
2018-03-28T07:20:11.463Z,11.60
2018-03-28T07:22:39.933Z,11.65
2018-03-28T07:25:08.336Z,12.07
2018-03-28T07:27:36.800Z,12.69
2018-03-28T07:30:05.381Z,12.13
2018-03-28T07:32:33.757Z,11.67
2018-03-28T07:35:02.339Z,12.18
2018-03-28T07:37:30.781Z,12.70
2018-03-28T07:39:59.006Z,13.20
2018-03-28T07:42:27.467Z,13.79
2018-03-28T07:44:55.886Z,14.77
2018-03-28T07:47:24.450Z,13.78
2018-03-28T07:49:52.471Z,14.21
2018-03-28T07:52:20.830Z,15.28
2018-03-28T07:54:48.809Z,16.49
2018-03-28T07:57:16.824Z,16.31
2018-03-28T07:59:44.900Z,17.32
2018-03-28T08:02:12.865Z,16.62
2018-03-28T08:04:40.853Z,16.50
2018-03-28T08:07:08.857Z,16.09
2018-03-28T08:09:36.834Z,17.21
2018-03-28T08:12:04.852Z,17.39
2018-03-28T08:14:32.865Z,17.04
2018-03-28T08:17:00.897Z,17.11
2018-03-28T08:19:28.859Z,18.21
2018-03-28T08:21:56.895Z,17.69
2018-03-28T08:24:24.901Z,16.55
2018-03-28T08:26:52.987Z,17.08
2018-03-28T08:29:21.083Z,17.00
2018-03-28T08:31:49.039Z,16.53
2018-03-28T08:34:17.049Z,14.85
2018-03-28T08:36:45.020Z,14.52
2018-03-28T08:39:12.985Z,14.47
2018-03-28T08:41:40.965Z,14.61
2018-03-28T08:44:08.939Z,15.41
2018-03-28T08:46:36.913Z,15.62
2018-03-28T08:49:04.912Z,16.25
2018-03-28T08:51:32.952Z,16.66
2018-03-28T08:54:01.187Z,17.40
2018-03-28T08:56:29.152Z,17.17
2018-03-28T08:58:57.220Z,18.02
2018-03-28T09:01:25.213Z,18.78
2018-03-28T09:03:53.216Z,18.54
2018-03-28T09:06:21.206Z,19.42
2018-03-28T09:08:49.188Z,20.53
2018-03-28T09:11:17.235Z,21.25
2018-03-28T09:13:45.252Z,22.46
2018-03-28T09:16:13.207Z,22.12
2018-03-28T09:18:41.279Z,21.56
2018-03-28T09:21:09.299Z,19.61
2018-03-28T09:23:37.242Z,20.66
2018-03-28T09:26:05.284Z,21.04
2018-03-28T09:28:33.351Z,17.97
2018-03-28T09:31:01.377Z,17.30
2018-03-28T09:33:29.419Z,19.22
2018-03-28T09:35:57.430Z,20.68
2018-03-28T09:38:25.430Z,20.57
2018-03-28T09:40:53.409Z,20.78
2018-03-28T09:43:21.411Z,22.53
2018-03-28T09:45:49.350Z,22.77
2018-03-28T09:48:17.411Z,22.46
2018-03-28T09:50:45.396Z,22.45
2018-03-28T09:53:13.482Z,21.57
2018-03-28T09:55:41.871Z,21.25
2018-03-28T09:58:09.962Z,20.75
2018-03-28T10:00:38.164Z,19.82
2018-03-28T10:03:11.821Z,20.30
2018-03-28T10:05:40.345Z,19.32
2018-03-28T10:08:08.525Z,18.78
2018-03-28T10:10:36.513Z,19.14
2018-03-28T10:13:04.555Z,18.64
2018-03-28T10:15:32.536Z,19.86
2018-03-28T10:18:00.570Z,20.81
2018-03-28T10:20:28.550Z,21.20
2018-03-28T10:22:56.513Z,22.59
2018-03-28T10:25:24.544Z,22.89
2018-03-28T10:27:52.478Z,23.55
2018-03-28T10:30:20.500Z,23.01
2018-03-28T10:32:48.522Z,23.47
2018-03-28T10:35:16.507Z,22.57
2018-03-28T10:37:44.506Z,21.11
2018-03-28T10:40:12.535Z,20.21
2018-03-28T10:42:40.542Z,20.05
2018-03-28T10:45:08.550Z,20.45
2018-03-28T10:47:36.486Z,20.82
2018-03-28T10:50:04.548Z,21.38
2018-03-28T10:52:32.596Z,21.66
2018-03-28T10:55:00.600Z,20.03
2018-03-28T10:57:29.059Z,19.56
2018-03-28T10:59:57.056Z,20.78
2018-03-28T11:02:24.927Z,20.91
2018-03-28T11:04:52.889Z,20.70
2018-03-28T11:07:20.893Z,19.08
2018-03-28T11:09:48.862Z,19.28
2018-03-28T11:12:16.899Z,18.37
2018-03-28T11:14:44.887Z,19.01
2018-03-28T11:17:12.875Z,18.82
2018-03-28T11:19:40.859Z,19.66
2018-03-28T11:22:09.174Z,18.67
2018-03-28T11:24:37.198Z,18.34
2018-03-28T11:27:05.533Z,19.47
2018-03-28T11:29:34.187Z,20.70
2018-03-28T11:32:02.203Z,20.51
2018-03-28T11:34:30.216Z,21.31
2018-03-28T11:36:58.223Z,21.47
2018-03-28T11:39:26.238Z,21.56
2018-03-28T11:41:54.308Z,21.64
2018-03-28T11:44:22.306Z,22.88
2018-03-28T11:46:50.286Z,21.97
2018-03-28T11:49:18.268Z,20.73
2018-03-28T11:51:46.245Z,19.67
2018-03-28T11:54:14.340Z,19.39
2018-03-28T11:56:42.919Z,18.46
2018-03-28T11:59:11.758Z,18.57
2018-03-28T12:01:40.422Z,18.24
2018-03-28T12:04:08.378Z,18.17
2018-03-28T12:06:36.368Z,17.80
2018-03-28T12:09:04.887Z,18.21
2018-03-28T12:11:33.336Z,18.91
2018-03-28T12:14:01.822Z,18.32
2018-03-28T12:16:30.486Z,18.40
2018-03-28T12:18:58.788Z,18.41
2018-03-28T12:21:27.461Z,18.37
2018-03-28T12:23:56.001Z,17.98
2018-03-28T12:26:24.406Z,17.29
2018-03-28T12:28:52.902Z,17.09
2018-03-28T12:31:21.512Z,16.76
2018-03-28T12:33:49.922Z,17.32
2018-03-28T12:36:18.330Z,16.37
2018-03-28T12:38:46.713Z,16.79
2018-03-28T12:41:15.187Z,16.92
2018-03-28T12:43:43.666Z,16.23
2018-03-28T12:46:12.261Z,16.67
2018-03-28T12:48:40.639Z,16.47
2018-03-28T12:51:08.924Z,16.66
2018-03-28T12:53:37.698Z,15.63
2018-03-28T12:56:06.157Z,16.33
2018-03-28T12:58:34.451Z,16.41
2018-03-28T13:01:03.337Z,15.09
2018-03-28T13:03:31.764Z,15.33
2018-03-28T13:06:00.303Z,15.84
2018-03-28T13:08:28.686Z,16.30
2018-03-28T13:10:57.267Z,15.82
2018-03-28T13:13:26.057Z,15.03
2018-03-28T13:15:54.326Z,14.86
2018-03-28T13:18:22.733Z,15.54
2018-03-28T13:20:51.278Z,15.22
2018-03-28T13:23:19.779Z,14.52
2018-03-28T13:25:48.346Z,14.94
2018-03-28T13:28:16.748Z,15.88
2018-03-28T13:30:45.418Z,16.18
2018-03-28T13:33:13.946Z,15.52
2018-03-28T13:35:42.469Z,15.49
2018-03-28T13:38:11.268Z,15.96
2018-03-28T13:40:40.150Z,16.28
2018-03-28T13:43:08.839Z,16.06
2018-03-28T13:45:37.047Z,16.61
2018-03-28T13:48:05.595Z,17.42
2018-03-28T13:50:34.144Z,17.95
2018-03-28T13:53:02.759Z,18.62
2018-03-28T13:55:31.178Z,19.42
2018-03-28T13:57:59.724Z,19.25
2018-03-28T14:00:27.921Z,18.60
2018-03-28T14:02:56.673Z,19.17
2018-03-28T14:05:25.192Z,18.94
2018-03-28T14:07:53.837Z,19.00
2018-03-28T14:10:22.225Z,19.34
2018-03-28T14:12:50.502Z,19.13
2018-03-28T14:15:18.719Z,18.44
2018-03-28T14:17:47.160Z,18.39
2018-03-28T14:20:15.939Z,18.76
2018-03-28T14:22:44.727Z,18.62
2018-03-28T14:25:13.211Z,16.94
2018-03-28T14:27:41.287Z,16.67
2018-03-28T14:30:09.765Z,16.50
2018-03-28T14:32:38.271Z,15.47
2018-03-28T14:35:06.721Z,15.93
2018-03-28T14:37:35.225Z,15.57
2018-03-28T14:40:03.587Z,15.87
2018-03-28T14:42:31.858Z,15.67
2018-03-28T14:45:00.039Z,16.41
2018-03-28T14:47:28.611Z,14.77
2018-03-28T14:49:56.706Z,15.99
2018-03-28T14:52:25.373Z,15.21
2018-03-28T14:54:53.875Z,14.72
2018-03-28T14:57:22.434Z,13.74
2018-03-28T14:59:50.819Z,13.77
2018-03-28T15:02:19.287Z,14.12
2018-03-28T15:04:47.599Z,14.54
2018-03-28T15:07:16.059Z,13.87
2018-03-28T15:09:44.627Z,13.81
2018-03-28T15:12:13.157Z,13.73
2018-03-28T15:14:41.582Z,13.15
2018-03-28T15:17:10.275Z,12.93
2018-03-28T15:19:39.060Z,12.77
2018-03-28T15:22:07.865Z,12.53
2018-03-28T15:24:36.444Z,12.48
2018-03-28T15:27:05.037Z,12.82
2018-03-28T15:29:33.213Z,13.25
2018-03-28T15:32:01.672Z,12.80
2018-03-28T15:34:29.959Z,12.90
2018-03-28T15:36:58.334Z,13.20
2018-03-28T15:39:26.959Z,13.46
2018-03-28T15:41:55.402Z,12.73
2018-03-28T15:44:23.978Z,12.93
2018-03-28T15:46:52.619Z,13.22
2018-03-28T15:49:21.204Z,13.32
2018-03-28T15:51:49.715Z,12.74
2018-03-28T15:54:18.134Z,13.41
2018-03-28T15:56:46.778Z,13.57
2018-03-28T15:59:15.204Z,13.19
2018-03-28T16:01:43.577Z,13.18
2018-03-28T16:04:11.834Z,13.13
2018-03-28T16:06:40.602Z,13.24
2018-03-28T16:09:09.716Z,13.06
2018-03-28T16:11:38.280Z,13.42
2018-03-28T16:14:06.721Z,13.50
2018-03-28T16:16:35.027Z,12.36
2018-03-28T16:19:03.855Z,12.85
2018-03-28T16:21:32.302Z,13.18
2018-03-28T16:24:00.794Z,13.52
2018-03-28T16:26:29.565Z,13.57
2018-03-28T16:28:57.857Z,13.59
2018-03-28T16:31:26.119Z,13.74
2018-03-28T16:33:54.872Z,13.58
2018-03-28T16:36:23.124Z,13.55
2018-03-28T16:38:51.628Z,13.71
2018-03-28T16:41:20.290Z,13.79
2018-03-28T16:43:48.516Z,13.84
2018-03-28T16:46:16.971Z,13.85
2018-03-28T16:48:45.392Z,13.86
2018-03-28T16:51:14.132Z,13.77
2018-03-28T16:53:42.583Z,13.56
2018-03-28T16:56:11.044Z,13.36
2018-03-28T16:58:39.608Z,12.86
2018-03-28T17:01:08.003Z,13.01
2018-03-28T17:03:36.892Z,13.27
2018-03-28T17:06:05.355Z,13.09
2018-03-28T17:08:33.887Z,12.97
2018-03-28T17:11:01.862Z,13.03
2018-03-28T17:13:29.893Z,12.89
2018-03-28T17:15:57.926Z,12.80
2018-03-28T17:18:25.932Z,12.69
2018-03-28T17:20:53.899Z,11.65
2018-03-28T17:23:21.927Z,11.29
2018-03-28T17:25:49.942Z,11.31
2018-03-28T17:28:17.973Z,10.46
2018-03-28T17:30:46.044Z,10.14
2018-03-28T17:33:14.025Z,9.97
2018-03-28T17:35:42.038Z,10.11
2018-03-28T17:38:10.068Z,10.93
2018-03-28T17:40:38.139Z,10.13
2018-03-28T17:43:06.195Z,10.34
2018-03-28T17:45:34.184Z,10.59
2018-03-28T17:48:02.180Z,10.86
2018-03-28T17:50:30.227Z,11.08
2018-03-28T17:52:58.283Z,11.05
2018-03-28T17:55:26.328Z,10.25
2018-03-28T17:57:54.424Z,10.07
2018-03-28T18:00:22.455Z,10.51
2018-03-28T18:02:50.547Z,9.97
2018-03-28T18:05:18.571Z,9.57
2018-03-28T18:07:46.654Z,9.52
2018-03-28T18:10:15.006Z,9.51
2018-03-28T18:12:43.017Z,9.72
2018-03-28T18:15:11.040Z,9.96
2018-03-28T18:17:39.136Z,9.80
2018-03-28T18:20:07.191Z,9.92
2018-03-28T18:22:35.197Z,10.09
2018-03-28T18:25:03.308Z,10.19
2018-03-28T18:27:31.352Z,10.00
2018-03-28T18:29:59.386Z,9.92
2018-03-28T18:32:27.423Z,9.78
2018-03-28T18:34:55.461Z,9.98
2018-03-28T18:37:23.428Z,9.99
2018-03-28T18:39:51.440Z,9.72
2018-03-28T18:42:19.416Z,9.45
2018-03-28T18:44:47.423Z,9.59
2018-03-28T18:47:15.401Z,9.79
2018-03-28T18:49:43.472Z,9.79
2018-03-28T18:52:11.476Z,9.77
2018-03-28T18:54:39.563Z,9.82
2018-03-28T18:57:07.640Z,9.43
2018-03-28T18:59:35.724Z,8.53
2018-03-28T19:02:03.750Z,8.20
2018-03-28T19:04:31.750Z,8.22
2018-03-28T19:06:59.786Z,8.48
2018-03-28T19:09:27.850Z,8.23
2018-03-28T19:11:56.362Z,7.99
2018-03-28T19:14:24.396Z,8.30
2018-03-28T19:16:52.566Z,8.15
2018-03-28T19:19:20.600Z,8.43
2018-03-28T19:21:48.671Z,8.75
2018-03-28T19:24:16.569Z,8.22
2018-03-28T19:26:44.570Z,8.54
2018-03-28T19:29:12.620Z,7.91
2018-03-28T19:31:40.684Z,7.66
2018-03-28T19:34:08.735Z,7.30
2018-03-28T19:36:36.782Z,7.09
2018-03-28T19:39:05.014Z,7.42
2018-03-28T19:41:33.882Z,7.15
2018-03-28T19:44:01.925Z,7.69
2018-03-28T19:46:29.996Z,8.33
2018-03-28T19:48:58.003Z,8.53
2018-03-28T19:51:26.011Z,8.67
2018-03-28T19:53:53.985Z,8.77
2018-03-28T19:56:21.965Z,8.85
2018-03-28T19:58:49.996Z,8.73
2018-03-28T20:01:17.942Z,9.00
2018-03-28T20:03:45.913Z,8.98
2018-03-28T20:06:14.019Z,8.98
2018-03-28T20:08:42.043Z,9.03
2018-03-28T20:11:10.055Z,8.97
2018-03-28T20:13:38.470Z,8.68
2018-03-28T20:16:06.528Z,8.52
2018-03-28T20:18:34.504Z,8.67
2018-03-28T20:21:02.526Z,8.83
2018-03-28T20:23:30.515Z,8.54
2018-03-28T20:25:58.564Z,8.18
2018-03-28T20:28:26.602Z,8.63
2018-03-28T20:30:54.564Z,8.78
2018-03-28T20:33:22.498Z,8.90
2018-03-28T20:35:50.552Z,8.95
2018-03-28T20:38:18.588Z,8.95
2018-03-28T20:40:46.582Z,8.97
2018-03-28T20:43:14.604Z,8.31
2018-03-28T20:45:42.663Z,8.65
2018-03-28T20:48:10.679Z,8.47
2018-03-28T20:50:38.663Z,8.64
2018-03-28T20:53:06.712Z,8.60
2018-03-28T20:55:34.710Z,8.52
2018-03-28T20:58:02.668Z,7.81
2018-03-28T21:00:30.707Z,8.12
2018-03-28T21:02:58.727Z,8.30
2018-03-28T21:05:26.743Z,8.56
2018-03-28T21:07:54.828Z,8.54
2018-03-28T21:10:22.873Z,8.58
2018-03-28T21:12:50.979Z,8.51
2018-03-28T21:15:19.399Z,7.67
2018-03-28T21:17:47.451Z,8.05
2018-03-28T21:20:15.492Z,7.48
2018-03-28T21:22:43.566Z,7.85
2018-03-28T21:25:11.585Z,7.76
2018-03-28T21:27:39.655Z,8.04
2018-03-28T21:30:07.715Z,7.80
2018-03-28T21:32:35.779Z,7.65
2018-03-28T21:35:03.850Z,7.81
2018-03-28T21:37:31.897Z,7.80
2018-03-28T21:39:59.986Z,7.82
2018-03-28T21:42:27.983Z,7.65
2018-03-28T21:44:56.039Z,7.91
2018-03-28T21:47:24.082Z,7.69
2018-03-28T21:49:52.122Z,7.87
2018-03-28T21:52:20.102Z,7.88
2018-03-28T21:54:48.186Z,8.23
2018-03-28T21:57:16.151Z,8.37
2018-03-28T21:59:44.209Z,8.41
2018-03-28T22:02:12.255Z,8.52
2018-03-28T22:04:40.318Z,8.42
2018-03-28T22:07:08.376Z,8.13
2018-03-28T22:09:36.448Z,8.21
2018-03-28T22:12:04.608Z,7.53
2018-03-28T22:14:32.687Z,7.88
2018-03-28T22:17:01.132Z,7.99
2018-03-28T22:19:29.207Z,7.97
2018-03-28T22:21:57.315Z,8.10
2018-03-28T22:24:25.654Z,8.11
2018-03-28T22:26:53.765Z,7.65
2018-03-28T22:29:21.845Z,7.63
2018-03-28T22:31:49.920Z,7.77
2018-03-28T22:34:18.031Z,8.10
2018-03-28T22:36:46.076Z,8.40
2018-03-28T22:39:14.114Z,8.53
2018-03-28T22:41:42.174Z,8.30
2018-03-28T22:44:10.132Z,8.22
2018-03-28T22:46:38.127Z,8.28
2018-03-28T22:49:06.177Z,8.29
2018-03-28T22:51:34.232Z,8.15
2018-03-28T22:54:02.306Z,8.12
2018-03-28T22:56:30.377Z,8.07
2018-03-28T22:58:58.444Z,7.99
2018-03-28T23:01:26.504Z,7.94
2018-03-28T23:03:54.641Z,7.90
2018-03-28T23:06:22.730Z,8.02
2018-03-28T23:08:50.797Z,8.03
2018-03-28T23:11:18.881Z,8.09
2018-03-28T23:13:46.908Z,8.02
2018-03-28T23:16:14.940Z,7.48
2018-03-28T23:18:43.366Z,7.78
2018-03-28T23:21:11.433Z,7.90
2018-03-28T23:23:39.485Z,7.65
2018-03-28T23:26:07.568Z,7.68
2018-03-28T23:28:35.621Z,7.70
2018-03-28T23:31:03.682Z,7.47
2018-03-28T23:33:31.629Z,7.89
2018-03-28T23:35:59.631Z,7.67
2018-03-28T23:38:27.637Z,7.69
2018-03-28T23:40:55.682Z,7.64
2018-03-28T23:43:23.733Z,7.74
2018-03-28T23:45:51.747Z,7.65
2018-03-28T23:48:19.802Z,7.82
2018-03-28T23:50:47.787Z,7.74
2018-03-28T23:53:15.867Z,7.76
2018-03-28T23:55:43.883Z,7.63
2018-03-28T23:58:11.958Z,7.58
